sensor_id;sensor_type;location;lat;lon;timestamp;P1;durP1;ratioP1;P2;durP2;ratioP2
68870;SDS011;55906;52.278;6.808;2022-12-07T00:01:43;10.90;;;6.47;;
68870;SDS011;55906;52.278;6.808;2022-12-07T00:04:13;11.32;;;6.40;;
68870;SDS011;55906;52.278;6.808;2022-12-07T00:06:41;9.52;;;6.07;;
68870;SDS011;55906;52.278;6.808;2022-12-07T00:09:10;10.40;;;6.07;;
68870;SDS011;55906;52.278;6.808;2022-12-07T00:11:38;10.40;;;6.90;;
68870;SDS011;55906;52.278;6.808;2022-12-07T00:14:06;12.63;;;6.43;;
68870;SDS011;55906;52.278;6.808;2022-12-07T00:16:34;11.63;;;6.50;;
68870;SDS011;55906;52.278;6.808;2022-12-07T00:19:01;11.80;;;7.37;;
68870;SDS011;55906;52.278;6.808;2022-12-07T00:21:32;9.30;;;6.53;;
68870;SDS011;55906;52.278;6.808;2022-12-07T00:24:00;11.52;;;6.65;;
68870;SDS011;55906;52.278;6.808;2022-12-07T00:26:28;9.35;;;6.05;;
68870;SDS011;55906;52.278;6.808;2022-12-07T00:28:58;11.98;;;5.93;;
68870;SDS011;55906;52.278;6.808;2022-12-07T00:31:27;11.90;;;5.72;;
68870;SDS011;55906;52.278;6.808;2022-12-07T00:33:55;8.07;;;5.22;;
68870;SDS011;55906;52.278;6.808;2022-12-07T00:36:22;8.87;;;5.83;;
68870;SDS011;55906;52.278;6.808;2022-12-07T00:38:51;8.25;;;5.15;;
68870;SDS011;55906;52.278;6.808;2022-12-07T00:41:18;9.52;;;5.60;;
68870;SDS011;55906;52.278;6.808;2022-12-07T00:43:46;6.47;;;5.20;;
68870;SDS011;55906;52.278;6.808;2022-12-07T00:46:14;6.78;;;4.68;;
68870;SDS011;55906;52.278;6.808;2022-12-07T00:48:42;7.68;;;5.07;;
68870;SDS011;55906;52.278;6.808;2022-12-07T00:51:09;8.48;;;4.82;;
68870;SDS011;55906;52.278;6.808;2022-12-07T00:53:36;6.82;;;4.60;;
68870;SDS011;55906;52.278;6.808;2022-12-07T00:56:06;6.75;;;4.50;;
68870;SDS011;55906;52.278;6.808;2022-12-07T00:58:34;8.15;;;4.80;;
68870;SDS011;55906;52.278;6.808;2022-12-07T01:01:00;9.90;;;4.93;;
68870;SDS011;55906;52.278;6.808;2022-12-07T01:03:28;7.75;;;4.70;;
68870;SDS011;55906;52.278;6.808;2022-12-07T01:05:55;9.60;;;4.65;;
68870;SDS011;55906;52.278;6.808;2022-12-07T01:08:22;7.37;;;4.80;;
68870;SDS011;55906;52.278;6.808;2022-12-07T01:10:56;7.80;;;4.90;;
68870;SDS011;55906;52.278;6.808;2022-12-07T01:13:26;10.00;;;5.00;;
68870;SDS011;55906;52.278;6.808;2022-12-07T01:15:55;5.35;;;4.70;;
68870;SDS011;55906;52.278;6.808;2022-12-07T01:18:23;7.05;;;4.60;;
68870;SDS011;55906;52.278;6.808;2022-12-07T01:20:56;7.97;;;5.03;;
68870;SDS011;55906;52.278;6.808;2022-12-07T01:23:24;6.03;;;4.60;;
68870;SDS011;55906;52.278;6.808;2022-12-07T01:25:53;8.83;;;4.67;;
68870;SDS011;55906;52.278;6.808;2022-12-07T01:28:21;10.63;;;4.90;;
68870;SDS011;55906;52.278;6.808;2022-12-07T01:30:55;8.80;;;5.10;;
68870;SDS011;55906;52.278;6.808;2022-12-07T01:33:23;7.30;;;5.00;;
68870;SDS011;55906;52.278;6.808;2022-12-07T01:35:50;8.80;;;5.10;;
68870;SDS011;55906;52.278;6.808;2022-12-07T01:38:16;7.60;;;5.43;;
68870;SDS011;55906;52.278;6.808;2022-12-07T01:40:43;7.38;;;5.15;;
68870;SDS011;55906;52.278;6.808;2022-12-07T01:43:13;7.18;;;5.15;;
68870;SDS011;55906;52.278;6.808;2022-12-07T01:45:42;7.65;;;4.93;;
68870;SDS011;55906;52.278;6.808;2022-12-07T01:48:11;7.97;;;4.78;;
68870;SDS011;55906;52.278;6.808;2022-12-07T01:50:42;6.40;;;4.47;;
68870;SDS011;55906;52.278;6.808;2022-12-07T01:53:11;7.60;;;4.80;;
68870;SDS011;55906;52.278;6.808;2022-12-07T01:55:40;8.23;;;4.55;;
68870;SDS011;55906;52.278;6.808;2022-12-07T01:58:10;7.63;;;5.30;;
68870;SDS011;55906;52.278;6.808;2022-12-07T02:00:38;9.07;;;4.90;;
68870;SDS011;55906;52.278;6.808;2022-12-07T02:03:06;6.40;;;4.68;;
68870;SDS011;55906;52.278;6.808;2022-12-07T02:05:38;9.20;;;4.95;;
68870;SDS011;55906;52.278;6.808;2022-12-07T02:08:07;6.43;;;4.25;;
68870;SDS011;55906;52.278;6.808;2022-12-07T02:10:35;5.30;;;4.30;;
68870;SDS011;55906;52.278;6.808;2022-12-07T02:13:03;6.53;;;4.35;;
68870;SDS011;55906;52.278;6.808;2022-12-07T02:15:37;6.70;;;4.17;;
68870;SDS011;55906;52.278;6.808;2022-12-07T02:18:13;7.35;;;3.70;;
68870;SDS011;55906;52.278;6.808;2022-12-07T02:20:49;7.97;;;4.47;;
68870;SDS011;55906;52.278;6.808;2022-12-07T02:26:29;6.32;;;4.20;;
68870;SDS011;55906;52.278;6.808;2022-12-07T02:29:23;8.07;;;5.57;;
68870;SDS011;55906;52.278;6.808;2022-12-07T02:31:53;6.35;;;4.72;;
68870;SDS011;55906;52.278;6.808;2022-12-07T02:34:28;6.95;;;4.15;;
68870;SDS011;55906;52.278;6.808;2022-12-07T02:37:00;8.90;;;4.55;;
68870;SDS011;55906;52.278;6.808;2022-12-07T02:39:31;6.38;;;4.07;;
68870;SDS011;55906;52.278;6.808;2022-12-07T02:42:07;7.73;;;3.90;;
68870;SDS011;55906;52.278;6.808;2022-12-07T02:44:39;7.20;;;4.72;;
68870;SDS011;55906;52.278;6.808;2022-12-07T02:47:08;6.68;;;3.90;;
68870;SDS011;55906;52.278;6.808;2022-12-07T02:49:38;8.00;;;4.20;;
68870;SDS011;55906;52.278;6.808;2022-12-07T02:52:06;7.40;;;3.60;;
68870;SDS011;55906;52.278;6.808;2022-12-07T02:54:33;7.38;;;4.10;;
68870;SDS011;55906;52.278;6.808;2022-12-07T02:57:00;8.82;;;4.20;;
68870;SDS011;55906;52.278;6.808;2022-12-07T02:59:37;9.45;;;3.97;;
68870;SDS011;55906;52.278;6.808;2022-12-07T03:02:17;9.20;;;3.80;;
68870;SDS011;55906;52.278;6.808;2022-12-07T03:04:52;10.70;;;4.00;;
68870;SDS011;55906;52.278;6.808;2022-12-07T03:07:36;8.10;;;3.90;;
68870;SDS011;55906;52.278;6.808;2022-12-07T03:10:12;6.95;;;3.70;;
68870;SDS011;55906;52.278;6.808;2022-12-07T03:12:46;5.43;;;3.90;;
68870;SDS011;55906;52.278;6.808;2022-12-07T03:15:23;8.17;;;3.80;;
68870;SDS011;55906;52.278;6.808;2022-12-07T03:17:53;5.82;;;3.65;;
68870;SDS011;55906;52.278;6.808;2022-12-07T03:20:23;6.40;;;3.72;;
68870;SDS011;55906;52.278;6.808;2022-12-07T03:22:52;9.43;;;4.40;;
68870;SDS011;55906;52.278;6.808;2022-12-07T03:25:20;7.97;;;3.58;;
68870;SDS011;55906;52.278;6.808;2022-12-07T03:27:49;7.28;;;3.90;;
68870;SDS011;55906;52.278;6.808;2022-12-07T03:30:22;5.53;;;3.40;;
68870;SDS011;55906;52.278;6.808;2022-12-07T03:32:53;6.63;;;3.50;;
68870;SDS011;55906;52.278;6.808;2022-12-07T03:35:26;9.98;;;3.70;;
68870;SDS011;55906;52.278;6.808;2022-12-07T03:37:55;6.57;;;3.47;;
68870;SDS011;55906;52.278;6.808;2022-12-07T03:40:28;8.40;;;3.90;;
68870;SDS011;55906;52.278;6.808;2022-12-07T03:42:59;8.05;;;3.75;;
68870;SDS011;55906;52.278;6.808;2022-12-07T03:45:38;6.78;;;3.90;;
68870;SDS011;55906;52.278;6.808;2022-12-07T03:48:08;7.80;;;3.78;;
68870;SDS011;55906;52.278;6.808;2022-12-07T03:50:43;5.57;;;3.38;;
68870;SDS011;55906;52.278;6.808;2022-12-07T03:53:18;6.85;;;3.80;;
68870;SDS011;55906;52.278;6.808;2022-12-07T03:55:49;5.47;;;3.58;;
68870;SDS011;55906;52.278;6.808;2022-12-07T03:58:19;5.80;;;3.47;;
68870;SDS011;55906;52.278;6.808;2022-12-07T04:00:49;6.13;;;4.00;;
68870;SDS011;55906;52.278;6.808;2022-12-07T04:03:17;4.57;;;3.10;;
68870;SDS011;55906;52.278;6.808;2022-12-07T04:05:43;6.83;;;3.63;;
68870;SDS011;55906;52.278;6.808;2022-12-07T04:08:10;7.10;;;3.45;;
68870;SDS011;55906;52.278;6.808;2022-12-07T04:10:37;5.85;;;4.53;;
68870;SDS011;55906;52.278;6.808;2022-12-07T04:13:04;9.38;;;3.45;;
68870;SDS011;55906;52.278;6.808;2022-12-07T04:15:30;4.05;;;2.95;;
68870;SDS011;55906;52.278;6.808;2022-12-07T04:17:58;5.03;;;3.15;;
68870;SDS011;55906;52.278;6.808;2022-12-07T04:20:25;5.35;;;3.13;;
68870;SDS011;55906;52.278;6.808;2022-12-07T04:22:52;4.50;;;2.70;;
68870;SDS011;55906;52.278;6.808;2022-12-07T04:25:18;6.32;;;3.47;;
68870;SDS011;55906;52.278;6.808;2022-12-07T04:27:45;8.85;;;3.65;;
68870;SDS011;55906;52.278;6.808;2022-12-07T04:30:12;7.60;;;3.40;;
68870;SDS011;55906;52.278;6.808;2022-12-07T04:32:38;5.63;;;3.13;;
68870;SDS011;55906;52.278;6.808;2022-12-07T04:35:07;5.70;;;3.20;;
68870;SDS011;55906;52.278;6.808;2022-12-07T04:37:34;6.55;;;3.58;;
68870;SDS011;55906;52.278;6.808;2022-12-07T04:40:04;7.18;;;3.42;;
68870;SDS011;55906;52.278;6.808;2022-12-07T04:42:32;5.43;;;3.53;;
68870;SDS011;55906;52.278;6.808;2022-12-07T04:44:58;7.78;;;4.35;;
68870;SDS011;55906;52.278;6.808;2022-12-07T04:47:25;6.67;;;3.77;;
68870;SDS011;55906;52.278;6.808;2022-12-07T04:49:52;10.13;;;4.30;;
68870;SDS011;55906;52.278;6.808;2022-12-07T04:52:20;6.65;;;3.50;;
68870;SDS011;55906;52.278;6.808;2022-12-07T04:54:46;6.80;;;3.83;;
68870;SDS011;55906;52.278;6.808;2022-12-07T04:57:13;4.97;;;3.03;;
68870;SDS011;55906;52.278;6.808;2022-12-07T04:59:40;6.47;;;3.70;;
68870;SDS011;55906;52.278;6.808;2022-12-07T05:02:06;5.90;;;3.47;;
68870;SDS011;55906;52.278;6.808;2022-12-07T05:04:33;6.30;;;3.60;;
68870;SDS011;55906;52.278;6.808;2022-12-07T05:06:59;7.18;;;3.58;;
68870;SDS011;55906;52.278;6.808;2022-12-07T05:09:27;7.75;;;3.30;;
68870;SDS011;55906;52.278;6.808;2022-12-07T05:11:54;5.53;;;3.60;;
68870;SDS011;55906;52.278;6.808;2022-12-07T05:14:21;10.63;;;3.50;;
68870;SDS011;55906;52.278;6.808;2022-12-07T05:16:48;8.18;;;3.72;;
68870;SDS011;55906;52.278;6.808;2022-12-07T05:19:16;6.43;;;3.93;;
68870;SDS011;55906;52.278;6.808;2022-12-07T05:21:46;5.65;;;3.40;;
68870;SDS011;55906;52.278;6.808;2022-12-07T05:24:14;7.10;;;4.40;;
68870;SDS011;55906;52.278;6.808;2022-12-07T05:26:43;10.32;;;4.85;;
68870;SDS011;55906;52.278;6.808;2022-12-07T05:29:11;7.18;;;3.90;;
68870;SDS011;55906;52.278;6.808;2022-12-07T05:31:38;7.53;;;3.90;;
68870;SDS011;55906;52.278;6.808;2022-12-07T05:34:05;7.55;;;4.00;;
68870;SDS011;55906;52.278;6.808;2022-12-07T05:36:32;8.83;;;3.90;;
68870;SDS011;55906;52.278;6.808;2022-12-07T05:38:58;6.05;;;3.55;;
68870;SDS011;55906;52.278;6.808;2022-12-07T05:41:25;6.75;;;3.80;;
68870;SDS011;55906;52.278;6.808;2022-12-07T05:44:11;8.73;;;4.33;;
68870;SDS011;55906;52.278;6.808;2022-12-07T05:46:37;6.13;;;4.25;;
68870;SDS011;55906;52.278;6.808;2022-12-07T05:49:04;5.30;;;3.42;;
68870;SDS011;55906;52.278;6.808;2022-12-07T05:51:31;8.60;;;4.15;;
68870;SDS011;55906;52.278;6.808;2022-12-07T05:53:57;5.90;;;3.67;;
68870;SDS011;55906;52.278;6.808;2022-12-07T05:56:24;7.40;;;3.60;;
68870;SDS011;55906;52.278;6.808;2022-12-07T05:58:51;6.47;;;4.05;;
68870;SDS011;55906;52.278;6.808;2022-12-07T06:01:37;7.40;;;3.43;;
68870;SDS011;55906;52.278;6.808;2022-12-07T06:04:03;6.80;;;3.92;;
68870;SDS011;55906;52.278;6.808;2022-12-07T06:06:30;8.52;;;4.22;;
68870;SDS011;55906;52.278;6.808;2022-12-07T06:08:57;6.23;;;3.93;;
68870;SDS011;55906;52.278;6.808;2022-12-07T06:11:23;6.65;;;3.92;;
68870;SDS011;55906;52.278;6.808;2022-12-07T06:14:08;7.18;;;3.85;;
68870;SDS011;55906;52.278;6.808;2022-12-07T06:16:34;9.07;;;3.92;;
68870;SDS011;55906;52.278;6.808;2022-12-07T06:19:02;8.82;;;4.28;;
68870;SDS011;55906;52.278;6.808;2022-12-07T06:21:29;8.60;;;3.92;;
68870;SDS011;55906;52.278;6.808;2022-12-07T06:23:55;9.00;;;4.30;;
68870;SDS011;55906;52.278;6.808;2022-12-07T06:26:22;9.00;;;3.40;;
68870;SDS011;55906;52.278;6.808;2022-12-07T06:28:49;7.55;;;4.50;;
68870;SDS011;55906;52.278;6.808;2022-12-07T06:31:15;6.97;;;3.97;;
68870;SDS011;55906;52.278;6.808;2022-12-07T06:33:42;6.73;;;4.00;;
68870;SDS011;55906;52.278;6.808;2022-12-07T06:36:10;6.05;;;3.15;;
68870;SDS011;55906;52.278;6.808;2022-12-07T06:38:37;9.10;;;3.97;;
68870;SDS011;55906;52.278;6.808;2022-12-07T06:41:04;6.30;;;3.60;;
68870;SDS011;55906;52.278;6.808;2022-12-07T06:43:31;5.47;;;3.78;;
68870;SDS011;55906;52.278;6.808;2022-12-07T06:45:58;7.10;;;3.72;;
68870;SDS011;55906;52.278;6.808;2022-12-07T06:48:24;7.72;;;3.95;;
68870;SDS011;55906;52.278;6.808;2022-12-07T06:50:51;10.87;;;3.80;;
68870;SDS011;55906;52.278;6.808;2022-12-07T06:53:19;10.48;;;3.78;;
68870;SDS011;55906;52.278;6.808;2022-12-07T06:55:46;5.57;;;4.68;;
68870;SDS011;55906;52.278;6.808;2022-12-07T06:58:13;8.90;;;4.57;;
68870;SDS011;55906;52.278;6.808;2022-12-07T07:00:39;9.35;;;3.85;;
68870;SDS011;55906;52.278;6.808;2022-12-07T07:03:06;10.05;;;3.80;;
68870;SDS011;55906;52.278;6.808;2022-12-07T07:05:33;11.13;;;4.82;;
68870;SDS011;55906;52.278;6.808;2022-12-07T07:07:59;9.38;;;4.38;;
68870;SDS011;55906;52.278;6.808;2022-12-07T07:10:27;7.72;;;3.58;;
68870;SDS011;55906;52.278;6.808;2022-12-07T07:12:54;5.63;;;3.78;;
68870;SDS011;55906;52.278;6.808;2022-12-07T07:15:21;4.30;;;3.07;;
68870;SDS011;55906;52.278;6.808;2022-12-07T07:17:47;6.43;;;3.70;;
68870;SDS011;55906;52.278;6.808;2022-12-07T07:20:14;5.60;;;3.53;;
68870;SDS011;55906;52.278;6.808;2022-12-07T07:22:41;9.23;;;3.67;;
68870;SDS011;55906;52.278;6.808;2022-12-07T07:25:07;5.10;;;3.60;;
68870;SDS011;55906;52.278;6.808;2022-12-07T07:27:35;5.22;;;4.00;;
68870;SDS011;55906;52.278;6.808;2022-12-07T07:30:02;5.97;;;3.95;;
68870;SDS011;55906;52.278;6.808;2022-12-07T07:32:29;8.55;;;3.72;;
68870;SDS011;55906;52.278;6.808;2022-12-07T07:34:56;8.90;;;4.28;;
68870;SDS011;55906;52.278;6.808;2022-12-07T07:37:23;9.70;;;4.38;;
68870;SDS011;55906;52.278;6.808;2022-12-07T07:39:50;5.97;;;3.60;;
68870;SDS011;55906;52.278;6.808;2022-12-07T07:42:16;6.68;;;4.40;;
68870;SDS011;55906;52.278;6.808;2022-12-07T07:44:45;8.52;;;4.10;;
68870;SDS011;55906;52.278;6.808;2022-12-07T07:47:11;5.90;;;3.77;;
68870;SDS011;55906;52.278;6.808;2022-12-07T07:49:38;9.50;;;3.92;;
68870;SDS011;55906;52.278;6.808;2022-12-07T07:52:05;9.23;;;3.83;;
68870;SDS011;55906;52.278;6.808;2022-12-07T07:54:31;7.03;;;4.22;;
68870;SDS011;55906;52.278;6.808;2022-12-07T07:56:58;9.15;;;5.10;;
68870;SDS011;55906;52.278;6.808;2022-12-07T07:59:24;6.38;;;4.30;;
68870;SDS011;55906;52.278;6.808;2022-12-07T08:01:53;11.38;;;4.28;;
68870;SDS011;55906;52.278;6.808;2022-12-07T08:04:19;12.77;;;5.03;;
68870;SDS011;55906;52.278;6.808;2022-12-07T08:06:46;6.25;;;4.13;;
68870;SDS011;55906;52.278;6.808;2022-12-07T08:09:12;9.55;;;4.53;;
68870;SDS011;55906;52.278;6.808;2022-12-07T08:11:39;7.43;;;4.00;;
68870;SDS011;55906;52.278;6.808;2022-12-07T08:14:06;8.45;;;4.05;;
68870;SDS011;55906;52.278;6.808;2022-12-07T08:16:32;8.48;;;4.30;;
68870;SDS011;55906;52.278;6.808;2022-12-07T08:19:00;11.45;;;4.40;;
68870;SDS011;55906;52.278;6.808;2022-12-07T08:21:27;8.27;;;4.70;;
68870;SDS011;55906;52.278;6.808;2022-12-07T08:23:53;12.88;;;4.03;;
68870;SDS011;55906;52.278;6.808;2022-12-07T08:26:20;7.07;;;3.80;;
68870;SDS011;55906;52.278;6.808;2022-12-07T08:28:47;16.87;;;4.13;;
68870;SDS011;55906;52.278;6.808;2022-12-07T08:31:14;8.65;;;4.97;;
68870;SDS011;55906;52.278;6.808;2022-12-07T08:33:44;8.25;;;4.25;;
68870;SDS011;55906;52.278;6.808;2022-12-07T08:36:13;12.57;;;5.03;;
68870;SDS011;55906;52.278;6.808;2022-12-07T08:38:40;9.25;;;5.05;;
68870;SDS011;55906;52.278;6.808;2022-12-07T08:41:07;7.90;;;4.85;;
68870;SDS011;55906;52.278;6.808;2022-12-07T08:43:34;9.65;;;5.05;;
68870;SDS011;55906;52.278;6.808;2022-12-07T08:46:03;8.70;;;4.50;;
68870;SDS011;55906;52.278;6.808;2022-12-07T08:48:36;8.45;;;4.68;;
68870;SDS011;55906;52.278;6.808;2022-12-07T08:51:06;9.60;;;4.28;;
68870;SDS011;55906;52.278;6.808;2022-12-07T08:53:34;8.47;;;4.17;;
68870;SDS011;55906;52.278;6.808;2022-12-07T08:56:03;6.95;;;4.15;;
68870;SDS011;55906;52.278;6.808;2022-12-07T08:58:32;8.48;;;4.57;;
68870;SDS011;55906;52.278;6.808;2022-12-07T09:00:59;9.60;;;4.65;;
68870;SDS011;55906;52.278;6.808;2022-12-07T09:03:26;8.23;;;4.07;;
68870;SDS011;55906;52.278;6.808;2022-12-07T09:05:52;7.50;;;3.90;;
68870;SDS011;55906;52.278;6.808;2022-12-07T09:08:20;7.22;;;3.83;;
68870;SDS011;55906;52.278;6.808;2022-12-07T09:10:49;8.75;;;3.60;;
68870;SDS011;55906;52.278;6.808;2022-12-07T09:13:15;6.88;;;3.28;;
68870;SDS011;55906;52.278;6.808;2022-12-07T09:15:42;7.10;;;4.03;;
68870;SDS011;55906;52.278;6.808;2022-12-07T09:18:09;8.40;;;3.70;;
68870;SDS011;55906;52.278;6.808;2022-12-07T09:20:35;6.43;;;2.80;;
68870;SDS011;55906;52.278;6.808;2022-12-07T09:23:02;7.32;;;3.45;;
68870;SDS011;55906;52.278;6.808;2022-12-07T09:25:31;5.93;;;2.80;;
68870;SDS011;55906;52.278;6.808;2022-12-07T09:27:59;5.77;;;3.03;;
68870;SDS011;55906;52.278;6.808;2022-12-07T09:30:25;4.57;;;2.63;;
68870;SDS011;55906;52.278;6.808;2022-12-07T09:32:53;7.57;;;2.80;;
68870;SDS011;55906;52.278;6.808;2022-12-07T09:35:20;7.50;;;2.90;;
68870;SDS011;55906;52.278;6.808;2022-12-07T09:37:47;5.03;;;2.80;;
68870;SDS011;55906;52.278;6.808;2022-12-07T09:40:13;9.87;;;3.47;;
68870;SDS011;55906;52.278;6.808;2022-12-07T09:42:42;6.35;;;2.88;;
68870;SDS011;55906;52.278;6.808;2022-12-07T09:45:13;6.15;;;3.10;;
68870;SDS011;55906;52.278;6.808;2022-12-07T09:47:42;6.63;;;3.45;;
68870;SDS011;55906;52.278;6.808;2022-12-07T09:50:12;7.00;;;3.50;;
68870;SDS011;55906;52.278;6.808;2022-12-07T09:52:41;7.00;;;2.73;;
68870;SDS011;55906;52.278;6.808;2022-12-07T09:55:10;5.05;;;2.55;;
68870;SDS011;55906;52.278;6.808;2022-12-07T09:57:39;8.65;;;3.17;;
68870;SDS011;55906;52.278;6.808;2022-12-07T10:00:10;7.70;;;2.80;;
68870;SDS011;55906;52.278;6.808;2022-12-07T10:02:42;7.70;;;2.92;;
68870;SDS011;55906;52.278;6.808;2022-12-07T10:05:12;7.40;;;3.57;;
68870;SDS011;55906;52.278;6.808;2022-12-07T10:07:40;7.07;;;2.80;;
68870;SDS011;55906;52.278;6.808;2022-12-07T10:10:12;8.57;;;2.85;;
68870;SDS011;55906;52.278;6.808;2022-12-07T10:12:53;8.25;;;3.55;;
68870;SDS011;55906;52.278;6.808;2022-12-07T10:18:26;8.47;;;3.23;;
68870;SDS011;55906;52.278;6.808;2022-12-07T10:21:00;5.15;;;2.90;;
68870;SDS011;55906;52.278;6.808;2022-12-07T10:23:29;6.72;;;3.13;;
68870;SDS011;55906;52.278;6.808;2022-12-07T10:25:56;5.07;;;2.90;;
68870;SDS011;55906;52.278;6.808;2022-12-07T10:28:22;6.10;;;2.67;;
68870;SDS011;55906;52.278;6.808;2022-12-07T10:30:50;7.03;;;2.47;;
68870;SDS011;55906;52.278;6.808;2022-12-07T10:33:33;5.47;;;2.55;;
68870;SDS011;55906;52.278;6.808;2022-12-07T10:36:15;8.00;;;2.67;;
68870;SDS011;55906;52.278;6.808;2022-12-07T10:38:46;8.38;;;2.85;;
68870;SDS011;55906;52.278;6.808;2022-12-07T10:41:13;6.00;;;2.70;;
68870;SDS011;55906;52.278;6.808;2022-12-07T10:43:46;7.33;;;2.90;;
68870;SDS011;55906;52.278;6.808;2022-12-07T10:46:24;5.10;;;2.33;;
68870;SDS011;55906;52.278;6.808;2022-12-07T10:49:07;4.70;;;2.30;;
68870;SDS011;55906;52.278;6.808;2022-12-07T10:51:52;6.32;;;2.83;;
68870;SDS011;55906;52.278;6.808;2022-12-07T10:54:28;6.00;;;2.80;;
68870;SDS011;55906;52.278;6.808;2022-12-07T10:57:10;6.37;;;2.20;;
68870;SDS011;55906;52.278;6.808;2022-12-07T10:59:53;6.03;;;2.25;;
68870;SDS011;55906;52.278;6.808;2022-12-07T11:02:36;5.82;;;2.67;;
68870;SDS011;55906;52.278;6.808;2022-12-07T11:05:21;4.75;;;2.00;;
68870;SDS011;55906;52.278;6.808;2022-12-07T11:07:57;7.18;;;2.70;;
68870;SDS011;55906;52.278;6.808;2022-12-07T11:10:34;7.80;;;2.40;;
68870;SDS011;55906;52.278;6.808;2022-12-07T11:13:14;5.15;;;2.05;;
68870;SDS011;55906;52.278;6.808;2022-12-07T11:15:55;6.75;;;2.20;;
68870;SDS011;55906;52.278;6.808;2022-12-07T11:18:34;6.07;;;2.20;;
68870;SDS011;55906;52.278;6.808;2022-12-07T11:21:12;6.25;;;2.75;;
68870;SDS011;55906;52.278;6.808;2022-12-07T11:23:48;5.83;;;2.07;;
68870;SDS011;55906;52.278;6.808;2022-12-07T11:26:21;7.43;;;2.45;;
68870;SDS011;55906;52.278;6.808;2022-12-07T11:29:09;5.85;;;2.28;;
68870;SDS011;55906;52.278;6.808;2022-12-07T11:31:52;5.75;;;1.77;;
68870;SDS011;55906;52.278;6.808;2022-12-07T11:34:31;5.65;;;2.20;;
68870;SDS011;55906;52.278;6.808;2022-12-07T11:37:07;6.13;;;2.07;;
68870;SDS011;55906;52.278;6.808;2022-12-07T11:39:41;8.35;;;2.08;;
68870;SDS011;55906;52.278;6.808;2022-12-07T11:42:14;4.32;;;2.10;;
68870;SDS011;55906;52.278;6.808;2022-12-07T11:44:47;6.85;;;2.50;;
68870;SDS011;55906;52.278;6.808;2022-12-07T11:47:20;6.90;;;2.60;;
68870;SDS011;55906;52.278;6.808;2022-12-07T11:49:53;5.80;;;2.03;;
68870;SDS011;55906;52.278;6.808;2022-12-07T11:52:26;6.88;;;2.50;;
68870;SDS011;55906;52.278;6.808;2022-12-07T11:54:58;6.68;;;2.42;;
68870;SDS011;55906;52.278;6.808;2022-12-07T11:57:30;5.55;;;2.22;;
68870;SDS011;55906;52.278;6.808;2022-12-07T12:00:04;7.70;;;2.97;;
68870;SDS011;55906;52.278;6.808;2022-12-07T12:02:41;5.30;;;2.30;;
68870;SDS011;55906;52.278;6.808;2022-12-07T12:05:15;8.65;;;2.50;;
68870;SDS011;55906;52.278;6.808;2022-12-07T12:07:46;4.82;;;2.28;;
68870;SDS011;55906;52.278;6.808;2022-12-07T12:10:19;6.68;;;2.70;;
68870;SDS011;55906;52.278;6.808;2022-12-07T12:13:10;7.65;;;2.83;;
68870;SDS011;55906;52.278;6.808;2022-12-07T12:15:53;6.23;;;2.40;;
68870;SDS011;55906;52.278;6.808;2022-12-07T12:18:40;6.65;;;2.63;;
68870;SDS011;55906;52.278;6.808;2022-12-07T12:21:26;8.07;;;2.65;;
68870;SDS011;55906;52.278;6.808;2022-12-07T12:23:56;4.70;;;2.10;;
68870;SDS011;55906;52.278;6.808;2022-12-07T12:26:25;7.45;;;2.50;;
68870;SDS011;55906;52.278;6.808;2022-12-07T12:28:55;8.67;;;2.40;;
68870;SDS011;55906;52.278;6.808;2022-12-07T12:31:33;6.40;;;2.80;;
68870;SDS011;55906;52.278;6.808;2022-12-07T12:34:03;6.25;;;2.42;;
68870;SDS011;55906;52.278;6.808;2022-12-07T12:36:51;5.88;;;2.42;;
68870;SDS011;55906;52.278;6.808;2022-12-07T12:39:18;10.15;;;3.55;;
68870;SDS011;55906;52.278;6.808;2022-12-07T12:41:56;7.33;;;2.80;;
68870;SDS011;55906;52.278;6.808;2022-12-07T12:50:29;6.90;;;3.45;;
68870;SDS011;55906;52.278;6.808;2022-12-07T12:53:03;6.15;;;3.17;;
68870;SDS011;55906;52.278;6.808;2022-12-07T12:58:49;6.57;;;3.17;;
68870;SDS011;55906;52.278;6.808;2022-12-07T13:01:50;7.60;;;3.35;;
68870;SDS011;55906;52.278;6.808;2022-12-07T13:04:25;7.53;;;3.60;;
68870;SDS011;55906;52.278;6.808;2022-12-07T13:07:11;9.80;;;3.92;;
68870;SDS011;55906;52.278;6.808;2022-12-07T13:09:42;6.00;;;3.00;;
68870;SDS011;55906;52.278;6.808;2022-12-07T13:12:12;6.80;;;3.40;;
68870;SDS011;55906;52.278;6.808;2022-12-07T13:14:52;8.02;;;3.30;;
68870;SDS011;55906;52.278;6.808;2022-12-07T13:20:40;8.77;;;3.38;;
68870;SDS011;55906;52.278;6.808;2022-12-07T13:23:21;8.53;;;3.17;;
68870;SDS011;55906;52.278;6.808;2022-12-07T13:28:43;6.75;;;3.90;;
68870;SDS011;55906;52.278;6.808;2022-12-07T13:31:28;8.90;;;3.55;;
68870;SDS011;55906;52.278;6.808;2022-12-07T13:33:59;6.40;;;3.28;;
68870;SDS011;55906;52.278;6.808;2022-12-07T13:36:27;9.07;;;3.40;;
68870;SDS011;55906;52.278;6.808;2022-12-07T13:38:57;8.27;;;3.30;;
68870;SDS011;55906;52.278;6.808;2022-12-07T13:41:26;9.63;;;3.92;;
68870;SDS011;55906;52.278;6.808;2022-12-07T13:43:58;7.95;;;3.05;;
68870;SDS011;55906;52.278;6.808;2022-12-07T13:46:31;8.18;;;3.80;;
68870;SDS011;55906;52.278;6.808;2022-12-07T13:49:15;5.97;;;3.20;;
68870;SDS011;55906;52.278;6.808;2022-12-07T13:51:43;6.82;;;3.63;;
68870;SDS011;55906;52.278;6.808;2022-12-07T13:54:11;7.53;;;3.53;;
68870;SDS011;55906;52.278;6.808;2022-12-07T13:56:40;8.75;;;4.25;;
68870;SDS011;55906;52.278;6.808;2022-12-07T13:59:10;10.35;;;3.90;;
68870;SDS011;55906;52.278;6.808;2022-12-07T14:01:40;7.63;;;3.47;;
68870;SDS011;55906;52.278;6.808;2022-12-07T14:06:59;7.82;;;4.32;;
68870;SDS011;55906;52.278;6.808;2022-12-07T14:09:28;8.57;;;4.00;;
68870;SDS011;55906;52.278;6.808;2022-12-07T14:11:57;9.93;;;3.88;;
68870;SDS011;55906;52.278;6.808;2022-12-07T14:14:25;6.53;;;3.80;;
68870;SDS011;55906;52.278;6.808;2022-12-07T14:16:58;11.02;;;3.17;;
68870;SDS011;55906;52.278;6.808;2022-12-07T14:19:47;9.30;;;3.97;;
68870;SDS011;55906;52.278;6.808;2022-12-07T14:22:20;6.53;;;3.92;;
68870;SDS011;55906;52.278;6.808;2022-12-07T14:24:49;6.17;;;3.83;;
68870;SDS011;55906;52.278;6.808;2022-12-07T14:27:18;8.07;;;3.60;;
68870;SDS011;55906;52.278;6.808;2022-12-07T14:29:45;9.02;;;4.07;;
68870;SDS011;55906;52.278;6.808;2022-12-07T14:32:20;11.50;;;4.85;;
68870;SDS011;55906;52.278;6.808;2022-12-07T14:34:54;10.13;;;4.05;;
68870;SDS011;55906;52.278;6.808;2022-12-07T14:37:22;7.93;;;3.73;;
68870;SDS011;55906;52.278;6.808;2022-12-07T14:39:48;6.53;;;3.90;;
68870;SDS011;55906;52.278;6.808;2022-12-07T14:42:15;6.50;;;4.38;;
68870;SDS011;55906;52.278;6.808;2022-12-07T14:44:43;9.68;;;4.38;;
68870;SDS011;55906;52.278;6.808;2022-12-07T14:47:11;10.47;;;4.30;;
68870;SDS011;55906;52.278;6.808;2022-12-07T14:49:38;8.82;;;4.90;;
68870;SDS011;55906;52.278;6.808;2022-12-07T14:52:05;10.23;;;4.70;;
68870;SDS011;55906;52.278;6.808;2022-12-07T14:54:37;12.05;;;4.50;;
68870;SDS011;55906;52.278;6.808;2022-12-07T14:57:04;8.30;;;3.60;;
68870;SDS011;55906;52.278;6.808;2022-12-07T14:59:30;6.85;;;4.13;;
68870;SDS011;55906;52.278;6.808;2022-12-07T15:01:58;11.32;;;4.18;;
68870;SDS011;55906;52.278;6.808;2022-12-07T15:04:25;12.02;;;4.13;;
68870;SDS011;55906;52.278;6.808;2022-12-07T15:06:55;5.20;;;3.60;;
68870;SDS011;55906;52.278;6.808;2022-12-07T15:09:22;14.85;;;4.03;;
68870;SDS011;55906;52.278;6.808;2022-12-07T15:11:49;7.47;;;3.75;;
68870;SDS011;55906;52.278;6.808;2022-12-07T15:14:15;7.63;;;4.03;;
68870;SDS011;55906;52.278;6.808;2022-12-07T15:16:42;9.02;;;4.38;;
68870;SDS011;55906;52.278;6.808;2022-12-07T15:19:12;9.95;;;4.40;;
68870;SDS011;55906;52.278;6.808;2022-12-07T15:21:40;9.02;;;4.32;;
68870;SDS011;55906;52.278;6.808;2022-12-07T15:24:08;6.63;;;3.67;;
68870;SDS011;55906;52.278;6.808;2022-12-07T15:26:35;7.23;;;4.07;;
68870;SDS011;55906;52.278;6.808;2022-12-07T15:29:01;7.72;;;3.85;;